Time;durP1;ratioP1;P1;durP2;ratioP2;P2;SDS_P1;SDS_P2;PMS_P1;PMS_P2;Temp;Humidity;BMP_temperature;BMP_pressure;BME280_temperature;BME280_humidity;BME280_pressure;Samples;Min_cycle;Max_cycle;Signal;HPM_P1;HPM_P2
2021/01/02 00:00:30;;;;;;;1.70;0.20;;;3.20;99.90;;;;;;5071786;28;20749;-57
2021/01/02 00:03:24;;;;;;;1.70;0.20;;;3.20;99.90;;;;;;5071377;28;20191;-58
2021/01/02 00:06:08;;;;;;;1.70;0.20;;;3.20;99.90;;;;;;5078776;28;20782;-58
2021/01/02 00:08:37;;;;;;;1.70;0.20;;;3.30;99.90;;;;;;5064329;28;20185;-58
2021/01/02 00:11:06;;;;;;;1.70;0.20;;;3.30;99.90;;;;;;5067022;28;20698;-57
2021/01/02 00:13:56;;;;;;;1.73;0.20;;;3.40;99.90;;;;;;5081834;28;20647;-58
2021/01/02 00:16:52;;;;;;;1.70;0.20;;;3.50;99.90;;;;;;5076822;28;20247;-58
2021/01/02 00:19:35;;;;;;;1.70;0.20;;;3.50;99.90;;;;;;5074306;28;20720;-58
2021/01/02 00:22:07;;;;;;;1.70;0.20;;;3.50;99.90;;;;;;5079081;28;20199;-57
2021/01/02 00:24:51;;;;;;;1.70;0.20;;;3.50;99.90;;;;;;5081329;28;20822;-58
2021/01/02 00:27:27;;;;;;;1.73;0.20;;;3.60;99.90;;;;;;5070008;28;20204;-58
2021/01/02 00:29:58;;;;;;;1.77;0.30;;;3.60;99.90;;;;;;5071791;28;20209;-58
2021/01/02 00:32:33;;;;;;;1.70;0.20;;;3.60;99.90;;;;;;5082526;28;20176;-58
2021/01/02 00:35:08;;;;;;;1.70;0.20;;;3.60;99.90;;;;;;5080108;28;20184;-60
2021/01/02 00:37:42;;;;;;;2.13;1.17;;;3.70;99.90;;;;;;5080722;28;20293;-58
2021/01/02 00:40:13;;;;;;;1.70;0.20;;;3.70;99.90;;;;;;5082648;28;20191;-57
2021/01/02 00:42:47;;;;;;;1.70;0.20;;;3.70;99.90;;;;;;5068999;28;20729;-58
2021/01/02 00:45:22;;;;;;;1.70;0.20;;;3.70;99.90;;;;;;5066621;28;20176;-58
2021/01/02 00:47:48;;;;;;;1.70;0.20;;;3.80;99.90;;;;;;5082196;28;20181;-58
2021/01/02 00:50:16;;;;;;;1.70;0.20;;;3.80;99.90;;;;;;5084929;28;20210;-58
2021/01/02 00:52:50;;;;;;;1.77;0.30;;;3.80;99.90;;;;;;5074610;28;20234;-58
2021/01/02 00:55:24;;;;;;;1.70;0.20;;;3.80;99.90;;;;;;5076351;28;20183;-58
2021/01/02 00:58:03;;;;;;;1.70;0.20;;;3.80;99.90;;;;;;5073253;28;20183;-58
2021/01/02 01:00:34;;;;;;;1.80;0.20;;;3.80;99.90;;;;;;5066581;28;20185;-58
2021/01/02 01:03:02;;;;;;;1.70;0.20;;;3.80;99.90;;;;;;5079707;28;20674;-58
2021/01/02 01:05:38;;;;;;;1.70;0.20;;;3.80;99.90;;;;;;5084378;28;20180;-58
2021/01/02 01:08:07;;;;;;;1.75;0.20;;;3.80;99.90;;;;;;5076984;28;20192;-59
2021/01/02 01:10:36;;;;;;;1.70;0.20;;;3.90;99.90;;;;;;5072840;28;20215;-58
2021/01/02 01:13:23;;;;;;;1.70;0.20;;;3.90;99.90;;;;;;5074088;28;20551;-58
2021/01/02 01:15:50;;;;;;;1.70;0.20;;;3.90;99.90;;;;;;5068223;28;20201;-58
2021/01/02 01:18:18;;;;;;;1.73;0.20;;;4.00;99.90;;;;;;5085050;28;20181;-56
2021/01/02 01:20:45;;;;;;;1.70;0.20;;;4.00;99.90;;;;;;5079005;28;20191;-58
2021/01/02 01:23:30;;;;;;;1.70;0.30;;;4.00;99.90;;;;;;5073565;28;20221;-58
2021/01/02 01:26:16;;;;;;;8.20;7.75;;;4.00;99.90;;;;;;5078596;28;20208;-58
2021/01/02 01:28:46;;;;;;;1.70;0.20;;;4.00;99.90;;;;;;5076674;28;20206;-58
2021/01/02 01:31:16;;;;;;;1.70;0.20;;;4.00;99.90;;;;;;5068097;28;20298;-58
2021/01/02 01:33:50;;;;;;;1.70;0.20;;;4.10;99.90;;;;;;5073647;28;20200;-58
2021/01/02 01:36:18;;;;;;;1.70;0.20;;;4.10;99.90;;;;;;5077826;28;20197;-57
2021/01/02 01:38:45;;;;;;;1.70;0.20;;;4.10;99.90;;;;;;5070770;28;20703;-57
2021/01/02 01:41:16;;;;;;;1.70;0.20;;;4.10;99.90;;;;;;5076885;28;20196;-58
2021/01/02 01:44:05;;;;;;;1.70;0.20;;;4.00;99.90;;;;;;5077461;28;20184;-58
2021/01/02 01:46:33;;;;;;;1.70;0.20;;;4.10;99.90;;;;;;5088936;28;20201;-58
2021/01/02 01:49:10;;;;;;;1.70;0.20;;;4.10;99.90;;;;;;5088351;28;20183;-58
2021/01/02 01:51:49;;;;;;;1.73;0.20;;;4.10;99.90;;;;;;5082716;28;20712;-58
2021/01/02 01:54:45;;;;;;;1.70;0.20;;;4.00;99.90;;;;;;5076198;28;20237;-58
2021/01/02 01:57:26;;;;;;;1.70;0.20;;;4.00;99.90;;;;;;5071776;28;20685;-58
2021/01/02 02:00:04;;;;;;;1.70;0.20;;;4.10;99.90;;;;;;5075531;28;20191;-58
2021/01/02 02:02:44;;;;;;;1.75;0.20;;;4.10;99.90;;;;;;5080036;28;20211;-58
2021/01/02 02:05:18;;;;;;;1.70;0.20;;;4.10;99.90;;;;;;5077684;28;20216;-58
2021/01/02 02:07:54;;;;;;;1.70;0.20;;;4.10;99.90;;;;;;5087639;28;20661;-58
2021/01/02 02:10:34;;;;;;;1.70;0.20;;;4.10;99.90;;;;;;5071783;28;20254;-58
2021/01/02 02:13:12;;;;;;;1.73;0.20;;;4.10;99.90;;;;;;5071784;28;20248;-58
2021/01/02 02:15:49;;;;;;;1.70;0.20;;;4.10;99.90;;;;;;5071755;28;20201;-58
2021/01/02 02:18:19;;;;;;;1.70;0.20;;;4.10;99.90;;;;;;5078728;28;20708;-57
2021/01/02 02:20:47;;;;;;;1.77;0.20;;;4.10;99.90;;;;;;5071742;28;20202;-57
2021/01/02 02:23:14;;;;;;;1.70;0.20;;;4.10;99.90;;;;;;5070055;28;20185;-58
2021/01/02 02:25:47;;;;;;;1.70;0.20;;;4.10;99.90;;;;;;5072548;28;20189;-58
2021/01/02 02:28:35;;;;;;;1.73;0.20;;;4.10;99.90;;;;;;5081228;28;20218;-58
2021/01/02 02:31:05;;;;;;;1.75;0.20;;;4.10;99.90;;;;;;5073065;28;20259;-58
2021/01/02 02:33:37;;;;;;;1.80;0.20;;;4.10;99.90;;;;;;5074218;28;20658;-58
2021/01/02 02:36:04;;;;;;;1.75;0.20;;;4.10;99.90;;;;;;5069783;28;20204;-58
2021/01/02 02:38:35;;;;;;;1.70;0.20;;;4.00;99.90;;;;;;5069310;28;20178;-58
2021/01/02 02:41:01;;;;;;;1.70;0.20;;;4.00;99.90;;;;;;5082177;28;20191;-58
2021/01/02 02:43:30;;;;;;;1.70;0.20;;;4.00;99.90;;;;;;5078558;28;20210;-58
2021/01/02 02:45:56;;;;;;;1.70;0.20;;;4.00;99.90;;;;;;5068073;28;20235;-58
2021/01/02 02:48:23;;;;;;;1.70;0.20;;;4.00;99.90;;;;;;5078911;28;21639;-58
2021/01/02 02:50:53;;;;;;;1.70;0.20;;;4.00;99.90;;;;;;5073347;28;20216;-58
2021/01/02 02:53:18;;;;;;;1.70;0.20;;;4.00;99.90;;;;;;5067191;28;20699;-57
2021/01/02 02:55:45;;;;;;;1.70;0.20;;;4.00;99.90;;;;;;5070930;28;20255;-58
2021/01/02 02:58:11;;;;;;;1.70;0.20;;;4.00;99.90;;;;;;5081004;28;20183;-58
2021/01/02 03:00:38;;;;;;;1.70;0.20;;;4.00;99.90;;;;;;5073243;28;20210;-58
2021/01/02 03:03:07;;;;;;;1.77;0.20;;;4.00;99.90;;;;;;5071732;28;20181;-58
2021/01/02 03:05:33;;;;;;;1.75;0.20;;;3.90;99.90;;;;;;5070231;28;20187;-58
2021/01/02 03:08:00;;;;;;;1.75;0.20;;;3.80;99.90;;;;;;5074882;28;20195;-58
2021/01/02 03:10:25;;;;;;;1.70;0.20;;;3.80;99.90;;;;;;5068566;28;20208;-58
2021/01/02 03:12:53;;;;;;;17.80;16.97;;;3.80;99.90;;;;;;5073932;28;20259;-57
2021/01/02 03:15:20;;;;;;;1.80;0.50;;;3.90;99.90;;;;;;5076968;28;20172;-58
2021/01/02 03:17:46;;;;;;;1.70;0.20;;;3.80;99.90;;;;;;5072322;28;20196;-58
2021/01/02 03:20:14;;;;;;;1.70;0.20;;;3.80;99.90;;;;;;5067482;28;20927;-58
2021/01/02 03:22:43;;;;;;;1.73;0.20;;;3.80;99.90;;;;;;5075160;28;20188;-58
2021/01/02 03:25:10;;;;;;;1.70;0.20;;;3.80;99.90;;;;;;5077215;28;20212;-58
2021/01/02 03:27:36;;;;;;;1.70;0.20;;;3.90;99.90;;;;;;5067424;28;20201;-58
2021/01/02 03:30:04;;;;;;;1.73;0.20;;;3.90;99.90;;;;;;5073336;28;20207;-58
2021/01/02 03:32:30;;;;;;;1.70;0.20;;;4.00;99.90;;;;;;5079087;28;20186;-58
2021/01/02 03:34:55;;;;;;;1.70;0.20;;;4.00;99.90;;;;;;5068017;28;20185;-58
2021/01/02 03:37:22;;;;;;;1.70;0.20;;;4.00;99.90;;;;;;5082611;28;20212;-60
2021/01/02 03:39:47;;;;;;;1.70;0.20;;;3.90;99.90;;;;;;5075371;28;20242;-59
2021/01/02 03:42:13;;;;;;;8.77;8.27;;;3.80;99.90;;;;;;5072889;28;20582;-58
2021/01/02 03:44:38;;;;;;;1.80;0.20;;;3.90;99.90;;;;;;5082266;28;20185;-58
2021/01/02 03:47:08;;;;;;;1.70;0.20;;;3.90;99.90;;;;;;5083035;28;20667;-58
2021/01/02 03:49:35;;;;;;;1.70;0.20;;;3.90;99.90;;;;;;5077603;28;20979;-58
2021/01/02 03:52:04;;;;;;;1.70;0.20;;;3.90;99.90;;;;;;5083552;28;20852;-57
2021/01/02 03:54:30;;;;;;;1.73;0.20;;;3.90;99.90;;;;;;5069113;28;20679;-58
2021/01/02 03:56:56;;;;;;;1.80;0.40;;;3.90;99.90;;;;;;5081593;28;20199;-58
2021/01/02 03:59:22;;;;;;;1.70;0.20;;;3.90;99.90;;;;;;5087056;28;20180;-57
2021/01/02 04:01:58;;;;;;;1.70;0.20;;;3.80;99.90;;;;;;5072890;28;20191;-57
2021/01/02 04:04:25;;;;;;;1.80;0.32;;;3.80;99.90;;;;;;5067815;28;20656;-58
2021/01/02 04:06:53;;;;;;;1.70;0.20;;;3.70;99.90;;;;;;5082948;28;20213;-58
2021/01/02 04:09:19;;;;;;;1.73;0.20;;;3.60;99.90;;;;;;5069273;28;20255;-58
2021/01/02 04:11:45;;;;;;;1.70;0.20;;;3.60;99.90;;;;;;5080153;28;20230;-57
2021/01/02 04:14:12;;;;;;;1.70;0.20;;;3.60;99.90;;;;;;5074927;28;20657;-56
2021/01/02 04:16:38;;;;;;;2.83;0.70;;;3.70;99.90;;;;;;5071842;28;20209;-57
2021/01/02 04:19:05;;;;;;;1.70;0.20;;;3.70;99.90;;;;;;5074950;28;20230;-58
2021/01/02 04:21:31;;;;;;;1.70;0.20;;;3.70;99.90;;;;;;5088257;28;20268;-58
2021/01/02 04:23:57;;;;;;;1.70;0.20;;;3.80;99.90;;;;;;5083298;28;20186;-57
2021/01/02 04:26:24;;;;;;;1.70;0.20;;;3.70;99.90;;;;;;5095269;28;20597;-57
2021/01/02 04:28:51;;;;;;;2.10;0.90;;;3.80;99.90;;;;;;5077833;28;20223;-57
2021/01/02 04:31:19;;;;;;;1.80;0.50;;;3.80;99.90;;;;;;5075554;28;20621;-58
2021/01/02 04:33:45;;;;;;;21.42;13.88;;;3.70;99.90;;;;;;5077561;28;20188;-57
2021/01/02 04:36:15;;;;;;;1.70;0.20;;;3.80;99.90;;;;;;5079877;28;20200;-58
2021/01/02 04:38:42;;;;;;;1.75;0.30;;;3.90;99.90;;;;;;5073877;28;20529;-58
2021/01/02 04:41:07;;;;;;;1.70;0.20;;;3.90;99.90;;;;;;5084476;28;20234;-58
2021/01/02 04:43:33;;;;;;;1.70;0.20;;;3.80;99.90;;;;;;5071931;28;20185;-58
2021/01/02 04:46:01;;;;;;;1.70;0.20;;;3.80;99.90;;;;;;5077227;28;20197;-58
2021/01/02 04:48:27;;;;;;;1.70;0.20;;;3.80;99.90;;;;;;5072189;28;20175;-58
2021/01/02 04:50:53;;;;;;;1.70;0.20;;;3.80;99.90;;;;;;5077778;28;20201;-58
2021/01/02 04:53:20;;;;;;;1.70;0.20;;;3.90;99.90;;;;;;5080437;28;20431;-58
2021/01/02 04:55:46;;;;;;;1.70;0.20;;;3.90;99.90;;;;;;5078232;28;20968;-58
2021/01/02 04:58:14;;;;;;;1.70;0.20;;;3.90;99.90;;;;;;5068279;28;20196;-58
2021/01/02 05:00:40;;;;;;;1.75;0.20;;;3.90;99.90;;;;;;5076559;28;20184;-58
2021/01/02 05:03:06;;;;;;;1.73;0.20;;;3.80;99.90;;;;;;5073697;28;20232;-58
2021/01/02 05:05:31;;;;;;;1.70;0.20;;;3.80;99.90;;;;;;5071607;28;20219;-58
2021/01/02 05:07:57;;;;;;;1.77;0.20;;;3.80;99.90;;;;;;5076501;28;20640;-58
2021/01/02 05:10:22;;;;;;;1.70;0.20;;;3.70;99.90;;;;;;5076266;28;20214;-58
2021/01/02 05:12:50;;;;;;;1.70;0.20;;;3.60;99.90;;;;;;5077186;28;20185;-58
2021/01/02 05:15:16;;;;;;;1.80;0.20;;;3.70;99.90;;;;;;5082832;28;20214;-58
2021/01/02 05:17:42;;;;;;;1.77;0.43;;;3.70;99.90;;;;;;5074518;28;20212;-57
2021/01/02 05:20:12;;;;;;;1.80;0.40;;;3.70;99.90;;;;;;5078356;28;20183;-58
2021/01/02 05:22:38;;;;;;;1.70;0.20;;;3.70;99.90;;;;;;5076666;28;20792;-59
2021/01/02 05:25:08;;;;;;;1.95;0.57;;;3.80;99.90;;;;;;5079102;28;20570;-58
2021/01/02 05:27:35;;;;;;;3.97;3.60;;;3.70;99.90;;;;;;5075754;28;20211;-58
2021/01/02 05:30:14;;;;;;;1.70;0.20;;;3.70;99.90;;;;;;5081400;28;20205;-57
2021/01/02 05:33:03;;;;;;;2.75;2.40;;;3.80;99.90;;;;;;5076209;28;20652;-57
2021/01/02 05:35:41;;;;;;;2.63;1.75;;;3.70;99.90;;;;;;5068923;28;20189;-58
2021/01/02 05:38:21;;;;;;;2.30;1.25;;;3.70;99.90;;;;;;5066891;28;20184;-57
2021/01/02 05:40:50;;;;;;;2.53;0.95;;;3.70;99.90;;;;;;5101050;28;20184;-58
2021/01/02 05:43:17;;;;;;;5.32;4.88;;;3.70;99.90;;;;;;5084834;28;20188;-58
2021/01/02 05:45:43;;;;;;;1.80;0.20;;;3.60;99.90;;;;;;5098539;28;20187;-57
2021/01/02 05:48:26;;;;;;;1.70;0.20;;;3.60;99.90;;;;;;5102997;28;20176;-59
2021/01/02 05:50:56;;;;;;;1.70;0.20;;;3.60;99.90;;;;;;5082648;28;20221;-57
2021/01/02 05:53:23;;;;;;;1.70;0.20;;;3.60;99.90;;;;;;5094493;28;20177;-58
2021/01/02 05:55:59;;;;;;;1.70;0.20;;;3.60;99.90;;;;;;5098053;28;20200;-58
2021/01/02 05:58:25;;;;;;;1.75;0.20;;;3.70;99.90;;;;;;5093727;28;20172;-57
2021/01/02 06:01:17;;;;;;;2.97;0.57;;;3.80;99.90;;;;;;5099340;28;20226;-62
2021/01/02 06:03:44;;;;;;;1.77;0.28;;;3.70;99.90;;;;;;5101849;28;20171;-59
2021/01/02 06:06:11;;;;;;;1.73;0.20;;;3.60;99.90;;;;;;5091575;28;20226;-58
2021/01/02 06:08:41;;;;;;;2.10;1.23;;;3.70;99.90;;;;;;5078754;28;20197;-57
2021/01/02 06:11:12;;;;;;;1.70;0.20;;;3.60;99.90;;;;;;5078871;28;20232;-60
2021/01/02 06:13:41;;;;;;;1.70;0.30;;;3.60;99.90;;;;;;5078274;28;20539;-58
2021/01/02 06:16:08;;;;;;;1.70;0.20;;;3.60;99.90;;;;;;5079819;28;20208;-60
2021/01/02 06:18:36;;;;;;;3.35;2.25;;;3.60;99.90;;;;;;5077088;28;20179;-57
2021/01/02 06:21:07;;;;;;;6.03;3.47;;;3.60;99.90;;;;;;5071377;28;20188;-58
2021/01/02 06:23:34;;;;;;;1.70;0.20;;;3.60;99.90;;;;;;5080020;28;20585;-60
2021/01/02 06:26:04;;;;;;;1.70;0.20;;;3.70;99.90;;;;;;5072726;28;20211;-62
2021/01/02 06:28:30;;;;;;;1.70;0.20;;;3.60;99.90;;;;;;5075469;28;20568;-57
2021/01/02 06:31:16;;;;;;;1.70;0.20;;;3.60;99.90;;;;;;5074978;28;20296;-58
2021/01/02 06:33:46;;;;;;;1.70;0.20;;;3.70;99.90;;;;;;5081892;28;20520;-58
2021/01/02 06:36:34;;;;;;;1.73;0.20;;;3.70;99.90;;;;;;5071265;28;20204;-58
2021/01/02 06:39:22;;;;;;;1.70;0.20;;;3.80;99.90;;;;;;5074370;28;20184;-58
2021/01/02 06:41:48;;;;;;;12.80;11.90;;;3.80;99.90;;;;;;5088073;28;20200;-58
2021/01/02 06:44:39;;;;;;;1.90;0.60;;;3.80;99.90;;;;;;5094872;28;20194;-60
2021/01/02 06:47:31;;;;;;;1.92;0.80;;;3.70;99.90;;;;;;5088910;28;20228;-58
2021/01/02 06:49:57;;;;;;;1.70;0.20;;;3.70;99.90;;;;;;5079686;28;20228;-57
2021/01/02 06:52:34;;;;;;;3.20;0.60;;;3.80;99.90;;;;;;5078950;28;20233;-57
2021/01/02 06:55:18;;;;;;;1.70;0.20;;;3.70;99.90;;;;;;5072517;28;20208;-58
2021/01/02 06:57:44;;;;;;;1.70;0.20;;;3.70;99.90;;;;;;5068589;28;20341;-58
2021/01/02 07:00:28;;;;;;;1.70;0.20;;;3.70;99.90;;;;;;5083026;28;20258;-58
2021/01/02 07:02:54;;;;;;;1.70;0.20;;;3.60;99.90;;;;;;5077717;28;21130;-58
2021/01/02 07:05:44;;;;;;;13.68;12.65;;;3.60;99.90;;;;;;5076811;28;20223;-58
2021/01/02 07:08:42;;;;;;;1.90;0.52;;;3.50;99.90;;;;;;5077225;28;20435;-58
2021/01/02 07:11:24;;;;;;;1.70;0.20;;;3.50;99.90;;;;;;5068949;28;20200;-57
2021/01/02 07:14:14;;;;;;;1.75;0.20;;;3.50;99.90;;;;;;5067491;28;20575;-57
2021/01/02 07:16:45;;;;;;;1.70;0.20;;;3.50;99.90;;;;;;5065781;28;20513;-57
2021/01/02 07:19:31;;;;;;;1.73;0.20;;;3.60;99.90;;;;;;5087292;28;20180;-57
2021/01/02 07:22:07;;;;;;;1.73;0.20;;;3.60;99.90;;;;;;5071696;28;20173;-58
2021/01/02 07:24:48;;;;;;;2.13;0.75;;;3.70;99.90;;;;;;5069827;28;20203;-58
2021/01/02 07:27:18;;;;;;;1.73;0.20;;;3.70;99.90;;;;;;5072579;28;20516;-58
2021/01/02 07:29:55;;;;;;;1.75;0.20;;;3.60;99.90;;;;;;5066358;28;20275;-58
2021/01/02 07:32:22;;;;;;;1.70;0.20;;;3.60;99.90;;;;;;5084170;22;20198;-64
2021/01/02 07:34:59;;;;;;;1.70;0.20;;;3.60;99.90;;;;;;5063246;28;20210;-64
2021/01/02 07:37:28;;;;;;;1.70;0.20;;;3.50;99.90;;;;;;5075645;28;20180;-64
2021/01/02 07:40:00;;;;;;;1.80;0.20;;;3.50;99.90;;;;;;5067374;28;20185;-64
2021/01/02 07:42:28;;;;;;;1.70;0.20;;;3.50;99.90;;;;;;5066324;28;20204;-63
2021/01/02 07:45:05;;;;;;;1.70;0.20;;;3.50;99.90;;;;;;5053317;28;20223;-64
2021/01/02 07:47:31;;;;;;;1.73;0.20;;;3.60;99.90;;;;;;5050144;28;20288;-65
2021/01/02 07:50:03;;;;;;;1.73;0.20;;;3.60;99.90;;;;;;5040497;28;20740;-64
2021/01/02 07:52:29;;;;;;;1.77;0.20;;;3.60;99.90;;;;;;5058770;28;20230;-64
2021/01/02 07:54:54;;;;;;;1.70;0.20;;;3.60;99.90;;;;;;5053486;28;20200;-65
2021/01/02 07:57:25;;;;;;;1.70;0.20;;;3.70;99.90;;;;;;5053267;28;20200;-64
2021/01/02 07:59:52;;;;;;;1.70;0.20;;;3.70;99.90;;;;;;5035531;28;20193;-64
2021/01/02 08:02:24;;;;;;;1.70;0.20;;;3.70;99.90;;;;;;5049251;28;20193;-63
2021/01/02 08:04:54;;;;;;;1.70;0.20;;;3.70;99.90;;;;;;5054460;28;20704;-63
2021/01/02 08:07:21;;;;;;;1.70;0.20;;;3.70;99.90;;;;;;5058871;28;20183;-63
2021/01/02 08:09:47;;;;;;;1.70;0.20;;;3.80;99.90;;;;;;5052469;28;20206;-64
2021/01/02 08:12:14;;;;;;;1.70;0.20;;;3.70;99.90;;;;;;5056755;28;20270;-63
2021/01/02 08:14:48;;;;;;;1.90;0.88;;;3.70;99.90;;;;;;5052693;28;20189;-66
2021/01/02 08:17:18;;;;;;;1.70;0.20;;;3.80;99.90;;;;;;5045945;28;20174;-65
2021/01/02 08:19:47;;;;;;;1.70;0.20;;;3.80;99.90;;;;;;5062883;28;20742;-66
2021/01/02 08:22:14;;;;;;;1.70;0.20;;;3.90;99.90;;;;;;5051242;28;20197;-64
2021/01/02 08:24:42;;;;;;;1.70;0.20;;;3.90;99.90;;;;;;5049767;28;20262;-65
2021/01/02 08:27:09;;;;;;;1.73;0.20;;;3.90;99.90;;;;;;5062505;28;20186;-65
2021/01/02 08:29:35;;;;;;;1.77;0.35;;;3.90;99.90;;;;;;5051282;28;20181;-65
2021/01/02 08:32:08;;;;;;;1.70;0.20;;;3.90;99.90;;;;;;5037410;28;20228;-65
2021/01/02 08:34:34;;;;;;;1.70;0.20;;;3.90;99.90;;;;;;5058704;28;20336;-64
2021/01/02 08:37:03;;;;;;;2.27;1.37;;;3.90;99.90;;;;;;5055619;28;20268;-63
2021/01/02 08:39:28;;;;;;;1.73;0.20;;;3.90;99.90;;;;;;5053172;28;20438;-62
2021/01/02 08:41:56;;;;;;;1.70;0.20;;;3.80;99.90;;;;;;5056044;28;20306;-63
2021/01/02 08:44:30;;;;;;;1.90;0.63;;;3.80;99.90;;;;;;5056051;28;20599;-63
2021/01/02 08:46:56;;;;;;;1.77;0.30;;;3.70;99.90;;;;;;5058565;28;20184;-63
2021/01/02 08:49:33;;;;;;;1.70;0.20;;;3.80;99.90;;;;;;5055174;28;20185;-63
2021/01/02 08:52:15;;;;;;;1.70;0.20;;;3.80;99.90;;;;;;5052154;28;20447;-62
2021/01/02 08:54:40;;;;;;;1.70;0.20;;;3.70;99.90;;;;;;5054165;28;20581;-63
2021/01/02 08:57:35;;;;;;;1.70;0.20;;;3.70;99.90;;;;;;5066580;28;20271;-63
2021/01/02 09:00:09;;;;;;;1.70;0.20;;;3.80;99.90;;;;;;5047270;28;20192;-64
2021/01/02 09:02:35;;;;;;;1.77;0.20;;;3.80;99.90;;;;;;5054766;28;20251;-64
2021/01/02 09:05:12;;;;;;;1.70;0.20;;;3.90;99.90;;;;;;5050574;28;20184;-63
2021/01/02 09:07:39;;;;;;;1.70;0.20;;;3.90;99.90;;;;;;5053723;28;20199;-63
2021/01/02 09:10:22;;;;;;;2.40;0.63;;;4.00;99.90;;;;;;5054512;28;20678;-63
2021/01/02 09:13:10;;;;;;;3.65;2.35;;;3.80;99.90;;;;;;5058552;28;20281;-63
2021/01/02 09:15:59;;;;;;;1.70;0.20;;;3.80;99.90;;;;;;5059694;28;20643;-64
2021/01/02 09:18:30;;;;;;;1.70;0.20;;;3.90;99.90;;;;;;5050328;28;20244;-64
2021/01/02 09:21:16;;;;;;;1.80;0.40;;;3.80;99.90;;;;;;5057015;28;20660;-63
2021/01/02 09:23:43;;;;;;;1.70;0.20;;;3.80;99.90;;;;;;5050317;28;20634;-63
2021/01/02 09:26:22;;;;;;;1.92;0.55;;;3.80;99.90;;;;;;5058293;28;20176;-62
2021/01/02 09:28:48;;;;;;;1.70;0.20;;;3.90;99.90;;;;;;5036688;28;20185;-62
2021/01/02 09:31:14;;;;;;;1.70;0.20;;;3.90;99.90;;;;;;5053045;28;20312;-63
2021/01/02 09:33:39;;;;;;;1.70;0.20;;;3.90;99.90;;;;;;5061580;28;20227;-62
2021/01/02 09:36:05;;;;;;;1.70;0.20;;;4.00;99.90;;;;;;5056846;28;20181;-63
2021/01/02 09:38:31;;;;;;;2.08;0.50;;;4.10;99.90;;;;;;5058654;28;21549;-62
2021/01/02 09:40:56;;;;;;;2.00;0.43;;;4.10;99.90;;;;;;5057346;28;20204;-62
2021/01/02 09:43:22;;;;;;;1.70;0.20;;;4.10;99.90;;;;;;5052246;28;20263;-62
2021/01/02 09:45:47;;;;;;;1.80;0.20;;;4.10;99.90;;;;;;5052361;28;20219;-63
2021/01/02 09:48:14;;;;;;;2.00;0.90;;;4.00;99.90;;;;;;5051518;28;20196;-62
2021/01/02 09:50:41;;;;;;;1.75;0.30;;;4.10;99.90;;;;;;5050866;28;20296;-62
2021/01/02 09:53:08;;;;;;;3.90;1.33;;;4.10;99.90;;;;;;5056202;28;20208;-62
2021/01/02 09:55:34;;;;;;;1.70;0.20;;;4.10;99.90;;;;;;5047897;28;20375;-62
2021/01/02 09:57:59;;;;;;;5.40;2.93;;;4.10;99.90;;;;;;5050524;28;20260;-63
2021/01/02 10:00:27;;;;;;;1.70;0.20;;;4.10;99.90;;;;;;5040372;28;20972;-62
2021/01/02 10:02:56;;;;;;;1.75;0.20;;;4.20;99.90;;;;;;5051334;28;20232;-63
2021/01/02 10:05:23;;;;;;;3.17;1.38;;;4.20;99.90;;;;;;5061675;28;20182;-63
2021/01/02 10:07:50;;;;;;;2.35;1.85;;;4.20;99.90;;;;;;5052556;28;20672;-63
2021/01/02 10:10:17;;;;;;;7.32;3.15;;;4.30;99.90;;;;;;5051230;28;20216;-62
2021/01/02 10:12:44;;;;;;;3.45;1.05;;;4.30;99.90;;;;;;5049910;28;20205;-63
2021/01/02 10:15:11;;;;;;;8.63;7.78;;;4.30;99.90;;;;;;5059151;28;20688;-62
2021/01/02 10:17:37;;;;;;;1.73;0.20;;;4.30;99.90;;;;;;5052874;28;20238;-62
2021/01/02 10:20:04;;;;;;;6.90;3.13;;;4.40;99.90;;;;;;5063533;28;20216;-62
2021/01/02 10:22:30;;;;;;;1.80;0.20;;;4.30;99.90;;;;;;5046205;28;20230;-62
2021/01/02 10:24:55;;;;;;;4.17;1.87;;;4.30;99.90;;;;;;5061282;28;20220;-63
2021/01/02 10:27:22;;;;;;;3.40;2.83;;;4.40;99.90;;;;;;5064217;28;20203;-63
2021/01/02 10:29:51;;;;;;;2.03;0.70;;;4.50;99.90;;;;;;5064604;28;20223;-63
2021/01/02 10:32:18;;;;;;;1.70;0.20;;;4.50;99.90;;;;;;5067659;28;20648;-63
2021/01/02 10:34:51;;;;;;;1.70;0.20;;;4.40;99.90;;;;;;5047965;28;20197;-62
2021/01/02 10:37:22;;;;;;;1.77;0.32;;;4.50;99.90;;;;;;5052087;28;20181;-62
2021/01/02 10:39:48;;;;;;;7.68;7.15;;;4.50;99.90;;;;;;5051192;28;20182;-62
2021/01/02 10:42:15;;;;;;;4.97;1.73;;;4.60;99.90;;;;;;5057150;28;20191;-62
2021/01/02 10:44:45;;;;;;;4.20;2.33;;;4.50;99.90;;;;;;5050409;28;20182;-61
2021/01/02 10:47:12;;;;;;;2.38;0.82;;;4.50;99.90;;;;;;5036402;28;20260;-62
2021/01/02 10:49:37;;;;;;;1.77;0.30;;;4.50;99.90;;;;;;5052350;28;20887;-62
2021/01/02 10:52:03;;;;;;;1.70;0.20;;;4.60;99.90;;;;;;5050527;28;20255;-62
2021/01/02 10:54:29;;;;;;;1.83;0.43;;;4.70;99.90;;;;;;5054809;28;20287;-63
2021/01/02 10:56:54;;;;;;;1.70;0.20;;;4.70;99.90;;;;;;5053319;28;20269;-62
2021/01/02 10:59:22;;;;;;;1.70;0.20;;;4.60;99.90;;;;;;5056963;28;20659;-62
2021/01/02 11:01:53;;;;;;;1.70;0.20;;;4.70;99.90;;;;;;5052130;28;20204;-62
2021/01/02 11:04:21;;;;;;;1.70;0.20;;;4.70;99.90;;;;;;5056292;28;20205;-62
2021/01/02 11:06:50;;;;;;;1.73;0.20;;;4.60;99.90;;;;;;5052305;28;20197;-62
2021/01/02 11:09:16;;;;;;;1.70;0.20;;;4.60;99.90;;;;;;5057055;28;20240;-62
2021/01/02 11:11:42;;;;;;;1.70;0.20;;;4.70;99.90;;;;;;5047734;28;20262;-62
2021/01/02 11:14:10;;;;;;;2.20;0.50;;;4.70;99.90;;;;;;5046408;28;20208;-63
2021/01/02 11:16:38;;;;;;;1.70;0.20;;;4.90;99.90;;;;;;5051757;28;20263;-62
2021/01/02 11:19:28;;;;;;;1.70;0.20;;;4.90;99.90;;;;;;5058961;28;20243;-63
2021/01/02 11:22:00;;;;;;;1.73;0.20;;;5.00;99.90;;;;;;5050340;28;20195;-62
2021/01/02 11:24:27;;;;;;;1.73;0.20;;;5.10;99.90;;;;;;5048114;28;20216;-62
2021/01/02 11:26:55;;;;;;;1.70;0.20;;;5.10;99.90;;;;;;5053149;28;20193;-62
2021/01/02 11:29:24;;;;;;;1.70;0.20;;;5.00;99.90;;;;;;5053154;28;20272;-62
2021/01/02 11:31:50;;;;;;;1.90;0.40;;;5.00;99.90;;;;;;5055019;28;20235;-62
2021/01/02 11:34:17;;;;;;;1.70;0.20;;;5.10;99.90;;;;;;5051189;28;20216;-62
2021/01/02 11:36:46;;;;;;;1.75;0.20;;;5.00;99.90;;;;;;5053846;28;20181;-64
2021/01/02 11:39:12;;;;;;;1.70;0.20;;;5.10;99.90;;;;;;5053662;28;20180;-62
2021/01/02 11:41:39;;;;;;;1.70;0.20;;;5.10;99.90;;;;;;5051626;28;20201;-62
2021/01/02 11:44:08;;;;;;;1.90;0.40;;;5.20;99.90;;;;;;5058548;28;20216;-62
2021/01/02 11:46:37;;;;;;;1.70;0.30;;;5.10;99.90;;;;;;5055257;28;20227;-61
2021/01/02 11:49:04;;;;;;;1.70;0.20;;;5.20;99.90;;;;;;5055061;28;20201;-63
2021/01/02 11:51:30;;;;;;;1.70;0.20;;;5.20;99.90;;;;;;5053986;28;20204;-62
2021/01/02 11:53:56;;;;;;;1.70;0.20;;;5.20;99.90;;;;;;5064000;28;20254;-62
2021/01/02 11:56:24;;;;;;;1.90;0.40;;;5.30;99.90;;;;;;5051797;28;20434;-62
2021/01/02 11:58:50;;;;;;;1.70;0.20;;;5.30;99.90;;;;;;5055657;28;20567;-63
2021/01/02 12:01:17;;;;;;;2.00;1.15;;;5.20;99.90;;;;;;5058847;28;20447;-63
2021/01/02 12:03:42;;;;;;;1.70;0.20;;;5.30;99.90;;;;;;5051346;28;20208;-62
2021/01/02 12:06:08;;;;;;;1.70;0.20;;;5.40;99.90;;;;;;5059758;28;20197;-62
2021/01/02 12:08:33;;;;;;;1.90;0.70;;;5.30;99.90;;;;;;5068433;28;20196;-61
2021/01/02 12:10:59;;;;;;;1.80;0.30;;;5.30;99.90;;;;;;5059398;28;20212;-64
2021/01/02 12:13:24;;;;;;;1.70;0.20;;;5.30;99.90;;;;;;5062977;28;20208;-64
2021/01/02 12:15:51;;;;;;;1.73;0.20;;;5.30;99.90;;;;;;5064848;28;20194;-64
2021/01/02 12:18:17;;;;;;;1.75;0.20;;;5.20;99.90;;;;;;5061257;28;20548;-64
2021/01/02 12:20:46;;;;;;;1.70;0.20;;;5.20;99.90;;;;;;5070888;28;20185;-63
2021/01/02 12:23:13;;;;;;;1.70;0.20;;;5.20;99.90;;;;;;5066325;28;20780;-64
2021/01/02 12:25:39;;;;;;;1.80;0.45;;;5.20;99.90;;;;;;5069047;28;20706;-64
2021/01/02 12:28:04;;;;;;;1.70;0.20;;;5.10;99.90;;;;;;5076097;28;20193;-63
2021/01/02 12:30:30;;;;;;;1.70;0.20;;;5.10;99.90;;;;;;5072047;28;20213;-63
2021/01/02 12:32:57;;;;;;;1.70;0.20;;;5.20;99.90;;;;;;5056274;28;20220;-64
2021/01/02 12:35:23;;;;;;;2.38;0.93;;;5.20;99.90;;;;;;5073609;28;20659;-62
2021/01/02 12:37:49;;;;;;;1.70;0.20;;;5.10;99.90;;;;;;5069783;28;20189;-63
2021/01/02 12:40:17;;;;;;;1.70;0.20;;;5.10;99.90;;;;;;5072917;28;20531;-63
2021/01/02 12:42:43;;;;;;;1.70;0.20;;;5.10;99.90;;;;;;5062945;28;20737;-63
2021/01/02 12:45:11;;;;;;;1.80;0.40;;;5.10;99.90;;;;;;5062467;28;20180;-64
2021/01/02 12:47:37;;;;;;;1.73;0.30;;;5.10;99.90;;;;;;5058409;28;20185;-62
2021/01/02 12:50:05;;;;;;;1.70;0.20;;;5.20;99.90;;;;;;5060844;28;20213;-62
2021/01/02 12:52:31;;;;;;;1.70;0.20;;;5.10;99.90;;;;;;5068954;28;20206;-62
2021/01/02 12:54:56;;;;;;;1.70;0.20;;;5.10;99.90;;;;;;5061641;28;20212;-63
2021/01/02 12:57:23;;;;;;;2.43;1.33;;;5.00;99.90;;;;;;5057414;28;20672;-63
2021/01/02 12:59:53;;;;;;;1.70;0.20;;;5.10;99.90;;;;;;5066099;28;20184;-62
2021/01/02 13:02:18;;;;;;;2.65;0.63;;;5.00;99.90;;;;;;5053673;28;20238;-62
2021/01/02 13:04:44;;;;;;;1.70;0.20;;;5.00;99.90;;;;;;5063208;28;20177;-62
2021/01/02 13:07:11;;;;;;;1.70;0.20;;;5.00;99.90;;;;;;5059327;28;20436;-63
2021/01/02 13:09:37;;;;;;;1.80;0.40;;;5.10;99.90;;;;;;5051166;28;20231;-63
2021/01/02 13:12:03;;;;;;;2.10;0.60;;;5.10;99.90;;;;;;5063065;28;20643;-63
2021/01/02 13:14:31;;;;;;;2.20;0.93;;;5.10;99.90;;;;;;5058396;28;20477;-62